»·PEaware :: N416PT KSNA-KCRQ

N416PT :: KSNA-KCRQ

FLIGHT INFORMATION

Flight Status: Arrived
Operator: Privately registered:
United States
More flights under this callsign
Pilot: Anonymous 7386 (7386)
Aircraft: CESSNA 172 SKYHAWK
(C172)
More flights by this aircraft type
Origin: KSNA John Wayne-Orange Co
United States
Destination: KCRQ McClellan-Palomar
United States
More flights between these airports :: More routes between these airports
Route: +V23 OCN
File this flight plan on PilotEdge
Remarks: CSTP30
Altitude:
(Current/Filed)
5,000ft
Speed:
(Current/Filed)
110kts
Departed: 05-Jun-20 04:33 PM
Arrived: 05-Jun-20 05:17 PM
Distance/Time
Traveled:
44nm/0:44
Distance/Time
To Go:
Arrived

Flight Plot

Page will automatically refresh every two minutes.


Map Options




Map Legend


Flown Route
Filed Route
Departure Airport
Arrival Airport
Navaid (VOR, NDB)
Fix

Horizontal Profiles

Position Reports

Time Latitude Longitude Heading Altitude Ground
Speed
05-Jun-20 16:11 33.671188 -117.868028 211 60ft 0kts
05-Jun-20 16:12 33.671188 -117.868028 211 60ft 0kts
05-Jun-20 16:13 33.671188 -117.868028 211 60ft 0kts
05-Jun-20 16:14 33.671188 -117.868028 211 60ft 0kts
05-Jun-20 16:15 33.671188 -117.868028 211 60ft 0kts
05-Jun-20 16:16 33.671188 -117.868028 210 60ft 0kts
05-Jun-20 16:17 33.671188 -117.868028 210 60ft 0kts
05-Jun-20 16:18 33.671188 -117.868028 210 60ft 0kts
05-Jun-20 16:19 33.671188 -117.868028 210 60ft 0kts
05-Jun-20 16:20 33.671188 -117.868028 210 60ft 0kts
05-Jun-20 16:21 33.671188 -117.868028 210 60ft 0kts
05-Jun-20 16:22 33.671188 -117.868028 210 60ft 0kts
05-Jun-20 16:23 33.671188 -117.868028 210 60ft 0kts
05-Jun-20 16:24 33.671105 -117.868106 239 60ft 0kts
05-Jun-20 16:25 33.672095 -117.868151 26 60ft 8kts
05-Jun-20 16:26 33.673985 -117.867160 25 60ft 8kts
05-Jun-20 16:27 33.676538 -117.865547 25 60ft 10kts
05-Jun-20 16:28 33.679385 -117.863737 27 60ft 9kts
05-Jun-20 16:29 33.679985 -117.863671 297 60ft 0kts
05-Jun-20 16:30 33.679985 -117.863671 297 60ft 0kts
05-Jun-20 16:31 33.680090 -117.863915 296 60ft 5kts
05-Jun-20 16:32 33.668233 -117.870014 192 518ft 71kts
05-Jun-20 16:33 33.648116 -117.874780 192 1427ft 72kts
05-Jun-20 16:34 33.628594 -117.878182 191 2331ft 68kts
05-Jun-20 16:35 33.614529 -117.865132 118 3078ft 88kts
05-Jun-20 16:36 33.600213 -117.840143 142 3816ft 85kts
05-Jun-20 16:37 33.583790 -117.821748 141 4667ft 80kts
05-Jun-20 16:38 33.564659 -117.799966 140 4993ft 111kts
05-Jun-20 16:39 33.543045 -117.774897 140 4991ft 106kts
05-Jun-20 16:40 33.521956 -117.750264 139 4991ft 105kts
05-Jun-20 16:41 33.501109 -117.725653 138 4991ft 105kts
05-Jun-20 16:42 33.480810 -117.700487 138 4991ft 105kts
05-Jun-20 16:43 33.460326 -117.675454 138 4991ft 105kts
05-Jun-20 16:44 33.439627 -117.650849 139 4991ft 104kts
05-Jun-20 16:45 33.418905 -117.626623 139 4991ft 103kts
05-Jun-20 16:46 33.398259 -117.602499 140 4992ft 103kts
05-Jun-20 16:47 33.377640 -117.578444 140 4992ft 103kts
05-Jun-20 16:48 33.356998 -117.554396 140 4992ft 103kts
05-Jun-20 16:49 33.336402 -117.530396 140 4992ft 103kts
05-Jun-20 16:50 33.315650 -117.506202 140 4992ft 103kts
05-Jun-20 16:52 33.294959 -117.482151 140 4993ft 103kts
05-Jun-20 16:53 33.274214 -117.458035 141 4992ft 103kts
05-Jun-20 16:54 33.253516 -117.433967 141 4992ft 103kts
05-Jun-20 16:55 33.239777 -117.404659 95 4992ft 110kts
05-Jun-20 16:56 33.238763 -117.367868 94 4992ft 111kts
05-Jun-20 16:57 33.237711 -117.331237 95 4990ft 111kts
05-Jun-20 16:58 33.236610 -117.294306 96 4990ft 110kts
05-Jun-20 16:59 33.235646 -117.257497 96 4990ft 110kts
05-Jun-20 17:00 33.234645 -117.220560 96 4991ft 111kts
05-Jun-20 17:01 33.233586 -117.183601 96 4990ft 110kts
05-Jun-20 17:02 33.232477 -117.146805 96 4990ft 110kts
05-Jun-20 17:03 33.231294 -117.109773 96 4991ft 111kts
05-Jun-20 17:04 33.230004 -117.071944 96 4708ft 119kts
05-Jun-20 17:05 33.227486 -117.035139 133 4202ft 97kts
05-Jun-20 17:06 33.203896 -117.029436 211 4009ft 84kts
05-Jun-20 17:07 33.187180 -117.049466 227 3682ft 85kts
05-Jun-20 17:08 33.170253 -117.070273 226 3364ft 87kts
05-Jun-20 17:08 33.158799 -117.089880 251 3370ft 86kts
05-Jun-20 17:10 33.154210 -117.122781 258 3064ft 86kts
05-Jun-20 17:11 33.149680 -117.150997 255 2451ft 88kts
05-Jun-20 17:11 33.145471 -117.173726 257 2143ft 84kts
05-Jun-20 17:13 33.140183 -117.206170 260 1577ft 85kts
05-Jun-20 17:14 33.136326 -117.230650 259 1133ft 70kts
05-Jun-20 17:14 33.133196 -117.249247 259 818ft 63kts
05-Jun-20 17:15 33.129972 -117.269481 261 434ft 61kts
05-Jun-20 17:16 33.127570 -117.279487 121 335ft 0kts
05-Jun-20 17:17 33.127066 -117.279329 171 335ft 0kts

Navigation Log

Ident Type
Flight plan parsing failed, navigation log unavailable